sensor_id;sensor_type;location;lat;lon;timestamp;P1;durP1;ratioP1;P2;durP2;ratioP2
5961;SDS011;3007;50.770;0.250;2023-11-21T00:01:31;5.17;;;4.23;;
5961;SDS011;3007;50.770;0.250;2023-11-21T00:03:59;4.80;;;3.37;;
5961;SDS011;3007;50.770;0.250;2023-11-21T00:06:26;5.67;;;4.13;;
5961;SDS011;3007;50.770;0.250;2023-11-21T00:08:54;5.23;;;4.30;;
5961;SDS011;3007;50.770;0.250;2023-11-21T00:11:21;5.10;;;4.53;;
5961;SDS011;3007;50.770;0.250;2023-11-21T00:13:49;5.07;;;4.20;;
5961;SDS011;3007;50.770;0.250;2023-11-21T00:16:16;6.07;;;4.10;;
5961;SDS011;3007;50.770;0.250;2023-11-21T00:18:44;5.77;;;4.30;;
5961;SDS011;3007;50.770;0.250;2023-11-21T00:21:12;5.60;;;4.77;;
5961;SDS011;3007;50.770;0.250;2023-11-21T00:23:39;5.60;;;4.70;;
5961;SDS011;3007;50.770;0.250;2023-11-21T00:26:06;5.77;;;5.03;;
5961;SDS011;3007;50.770;0.250;2023-11-21T00:28:33;6.30;;;5.07;;
5961;SDS011;3007;50.770;0.250;2023-11-21T00:30:59;8.63;;;5.17;;
5961;SDS011;3007;50.770;0.250;2023-11-21T00:33:26;5.33;;;4.83;;
5961;SDS011;3007;50.770;0.250;2023-11-21T00:35:54;8.27;;;5.47;;
5961;SDS011;3007;50.770;0.250;2023-11-21T00:38:21;5.10;;;4.43;;
5961;SDS011;3007;50.770;0.250;2023-11-21T00:40:48;8.77;;;5.20;;
5961;SDS011;3007;50.770;0.250;2023-11-21T00:43:17;7.53;;;6.77;;
5961;SDS011;3007;50.770;0.250;2023-11-21T00:45:44;8.73;;;5.87;;
5961;SDS011;3007;50.770;0.250;2023-11-21T00:48:14;6.60;;;5.60;;
5961;SDS011;3007;50.770;0.250;2023-11-21T00:50:41;6.90;;;5.77;;
5961;SDS011;3007;50.770;0.250;2023-11-21T00:53:09;7.00;;;5.37;;
5961;SDS011;3007;50.770;0.250;2023-11-21T00:55:36;7.70;;;5.33;;
5961;SDS011;3007;50.770;0.250;2023-11-21T00:58:05;6.83;;;6.00;;
5961;SDS011;3007;50.770;0.250;2023-11-21T01:00:32;8.90;;;5.93;;
5961;SDS011;3007;50.770;0.250;2023-11-21T01:02:59;8.23;;;6.70;;
5961;SDS011;3007;50.770;0.250;2023-11-21T01:05:26;7.63;;;6.73;;
5961;SDS011;3007;50.770;0.250;2023-11-21T01:07:53;9.37;;;6.93;;
5961;SDS011;3007;50.770;0.250;2023-11-21T01:10:21;6.93;;;5.90;;
5961;SDS011;3007;50.770;0.250;2023-11-21T01:12:48;7.40;;;6.70;;
5961;SDS011;3007;50.770;0.250;2023-11-21T01:15:15;9.40;;;7.13;;
5961;SDS011;3007;50.770;0.250;2023-11-21T01:17:41;7.70;;;6.87;;
5961;SDS011;3007;50.770;0.250;2023-11-21T01:20:09;8.33;;;7.23;;
5961;SDS011;3007;50.770;0.250;2023-11-21T01:22:37;8.17;;;7.17;;
5961;SDS011;3007;50.770;0.250;2023-11-21T01:25:04;8.80;;;7.93;;
5961;SDS011;3007;50.770;0.250;2023-11-21T01:27:34;10.27;;;8.43;;
5961;SDS011;3007;50.770;0.250;2023-11-21T01:30:01;11.33;;;7.70;;
5961;SDS011;3007;50.770;0.250;2023-11-21T01:32:28;8.77;;;6.93;;
5961;SDS011;3007;50.770;0.250;2023-11-21T01:34:55;11.00;;;7.90;;
5961;SDS011;3007;50.770;0.250;2023-11-21T01:37:22;10.00;;;8.53;;
5961;SDS011;3007;50.770;0.250;2023-11-21T01:39:49;12.57;;;7.33;;
5961;SDS011;3007;50.770;0.250;2023-11-21T01:42:16;7.90;;;7.10;;
5961;SDS011;3007;50.770;0.250;2023-11-21T01:44:45;9.23;;;7.63;;
5961;SDS011;3007;50.770;0.250;2023-11-21T01:47:11;9.90;;;7.90;;
5961;SDS011;3007;50.770;0.250;2023-11-21T01:49:40;12.93;;;8.43;;
5961;SDS011;3007;50.770;0.250;2023-11-21T01:52:11;11.80;;;8.57;;
5961;SDS011;3007;50.770;0.250;2023-11-21T01:54:40;11.57;;;8.70;;
5961;SDS011;3007;50.770;0.250;2023-11-21T01:57:07;14.70;;;8.23;;
5961;SDS011;3007;50.770;0.250;2023-11-21T01:59:35;10.10;;;8.00;;
5961;SDS011;3007;50.770;0.250;2023-11-21T02:02:04;11.17;;;8.67;;
5961;SDS011;3007;50.770;0.250;2023-11-21T02:04:31;8.50;;;7.53;;
5961;SDS011;3007;50.770;0.250;2023-11-21T02:06:59;10.27;;;7.83;;
5961;SDS011;3007;50.770;0.250;2023-11-21T02:09:26;11.93;;;7.53;;
5961;SDS011;3007;50.770;0.250;2023-11-21T02:11:54;11.23;;;7.90;;
5961;SDS011;3007;50.770;0.250;2023-11-21T02:14:21;9.90;;;7.87;;
5961;SDS011;3007;50.770;0.250;2023-11-21T02:16:48;9.57;;;8.20;;
5961;SDS011;3007;50.770;0.250;2023-11-21T02:19:18;10.10;;;8.47;;
5961;SDS011;3007;50.770;0.250;2023-11-21T02:21:49;8.63;;;7.83;;
5961;SDS011;3007;50.770;0.250;2023-11-21T02:24:19;9.73;;;8.17;;
5961;SDS011;3007;50.770;0.250;2023-11-21T02:26:46;11.53;;;8.00;;
5961;SDS011;3007;50.770;0.250;2023-11-21T02:29:16;10.17;;;8.50;;
5961;SDS011;3007;50.770;0.250;2023-11-21T02:31:47;11.80;;;8.97;;
5961;SDS011;3007;50.770;0.250;2023-11-21T02:34:14;9.20;;;8.27;;
5961;SDS011;3007;50.770;0.250;2023-11-21T02:36:41;9.93;;;8.37;;
5961;SDS011;3007;50.770;0.250;2023-11-21T02:39:09;10.37;;;8.43;;
5961;SDS011;3007;50.770;0.250;2023-11-21T02:41:38;7.80;;;6.93;;
5961;SDS011;3007;50.770;0.250;2023-11-21T02:44:05;8.97;;;7.47;;
5961;SDS011;3007;50.770;0.250;2023-11-21T02:46:32;7.03;;;5.93;;
5961;SDS011;3007;50.770;0.250;2023-11-21T02:49:00;8.43;;;6.90;;
5961;SDS011;3007;50.770;0.250;2023-11-21T02:51:27;6.67;;;5.80;;
5961;SDS011;3007;50.770;0.250;2023-11-21T02:53:54;6.97;;;5.97;;
5961;SDS011;3007;50.770;0.250;2023-11-21T02:56:24;7.57;;;6.87;;
5961;SDS011;3007;50.770;0.250;2023-11-21T02:58:55;8.10;;;7.30;;
5961;SDS011;3007;50.770;0.250;2023-11-21T03:01:22;8.10;;;7.30;;
5961;SDS011;3007;50.770;0.250;2023-11-21T03:03:50;9.90;;;6.83;;
5961;SDS011;3007;50.770;0.250;2023-11-21T03:06:17;9.23;;;7.33;;
5961;SDS011;3007;50.770;0.250;2023-11-21T03:08:44;7.77;;;6.53;;
5961;SDS011;3007;50.770;0.250;2023-11-21T03:11:11;9.10;;;7.60;;
5961;SDS011;3007;50.770;0.250;2023-11-21T03:13:39;7.87;;;7.07;;
5961;SDS011;3007;50.770;0.250;2023-11-21T03:16:08;7.60;;;6.87;;
5961;SDS011;3007;50.770;0.250;2023-11-21T03:18:35;7.43;;;6.77;;
5961;SDS011;3007;50.770;0.250;2023-11-21T03:21:02;7.50;;;6.70;;
5961;SDS011;3007;50.770;0.250;2023-11-21T03:23:29;7.27;;;6.53;;
5961;SDS011;3007;50.770;0.250;2023-11-21T03:25:57;8.07;;;7.27;;
5961;SDS011;3007;50.770;0.250;2023-11-21T03:28:24;8.50;;;7.43;;
5961;SDS011;3007;50.770;0.250;2023-11-21T03:30:52;8.80;;;7.27;;
5961;SDS011;3007;50.770;0.250;2023-11-21T03:33:20;9.10;;;6.93;;
5961;SDS011;3007;50.770;0.250;2023-11-21T03:35:47;7.53;;;6.83;;
5961;SDS011;3007;50.770;0.250;2023-11-21T03:38:14;7.17;;;6.50;;
5961;SDS011;3007;50.770;0.250;2023-11-21T03:40:42;7.80;;;6.70;;
5961;SDS011;3007;50.770;0.250;2023-11-21T03:43:09;8.33;;;5.73;;
5961;SDS011;3007;50.770;0.250;2023-11-21T03:45:36;5.40;;;4.90;;
5961;SDS011;3007;50.770;0.250;2023-11-21T03:48:06;4.90;;;4.50;;
5961;SDS011;3007;50.770;0.250;2023-11-21T03:50:35;6.23;;;5.13;;
5961;SDS011;3007;50.770;0.250;2023-11-21T03:53:02;6.03;;;5.50;;
5961;SDS011;3007;50.770;0.250;2023-11-21T03:55:29;6.10;;;5.20;;
5961;SDS011;3007;50.770;0.250;2023-11-21T03:57:57;5.37;;;4.20;;
5961;SDS011;3007;50.770;0.250;2023-11-21T04:00:24;4.67;;;3.83;;
5961;SDS011;3007;50.770;0.250;2023-11-21T04:02:52;5.57;;;3.90;;
5961;SDS011;3007;50.770;0.250;2023-11-21T04:05:19;4.23;;;3.53;;
5961;SDS011;3007;50.770;0.250;2023-11-21T04:07:49;3.07;;;2.73;;
5961;SDS011;3007;50.770;0.250;2023-11-21T04:10:16;2.50;;;2.30;;
5961;SDS011;3007;50.770;0.250;2023-11-21T04:12:43;3.80;;;2.70;;
5961;SDS011;3007;50.770;0.250;2023-11-21T04:15:11;2.83;;;2.30;;
5961;SDS011;3007;50.770;0.250;2023-11-21T04:17:39;2.20;;;2.00;;
5961;SDS011;3007;50.770;0.250;2023-11-21T04:20:06;1.97;;;1.80;;
5961;SDS011;3007;50.770;0.250;2023-11-21T04:22:36;2.37;;;2.13;;
5961;SDS011;3007;50.770;0.250;2023-11-21T04:25:08;1.90;;;1.70;;
5961;SDS011;3007;50.770;0.250;2023-11-21T04:27:36;2.57;;;2.10;;
5961;SDS011;3007;50.770;0.250;2023-11-21T04:30:03;2.17;;;1.97;;
5961;SDS011;3007;50.770;0.250;2023-11-21T04:32:31;1.67;;;1.57;;
5961;SDS011;3007;50.770;0.250;2023-11-21T04:34:58;1.77;;;1.67;;
5961;SDS011;3007;50.770;0.250;2023-11-21T04:37:25;2.70;;;1.60;;
5961;SDS011;3007;50.770;0.250;2023-11-21T04:39:52;2.50;;;1.67;;
5961;SDS011;3007;50.770;0.250;2023-11-21T04:42:20;2.37;;;1.63;;
5961;SDS011;3007;50.770;0.250;2023-11-21T04:44:48;3.53;;;2.13;;
5961;SDS011;3007;50.770;0.250;2023-11-21T04:47:15;1.60;;;1.50;;
5961;SDS011;3007;50.770;0.250;2023-11-21T04:49:43;2.40;;;2.20;;
5961;SDS011;3007;50.770;0.250;2023-11-21T04:52:12;3.87;;;1.90;;
5961;SDS011;3007;50.770;0.250;2023-11-21T04:54:39;1.83;;;1.70;;
5961;SDS011;3007;50.770;0.250;2023-11-21T04:57:05;3.80;;;2.30;;
5961;SDS011;3007;50.770;0.250;2023-11-21T04:59:34;4.67;;;2.50;;
5961;SDS011;3007;50.770;0.250;2023-11-21T05:02:01;3.23;;;2.80;;
5961;SDS011;3007;50.770;0.250;2023-11-21T05:04:30;2.67;;;2.07;;
5961;SDS011;3007;50.770;0.250;2023-11-21T05:06:57;2.90;;;2.70;;
5961;SDS011;3007;50.770;0.250;2023-11-21T05:09:26;2.67;;;2.47;;
5961;SDS011;3007;50.770;0.250;2023-11-21T05:11:57;3.53;;;2.63;;
5961;SDS011;3007;50.770;0.250;2023-11-21T05:14:25;3.43;;;2.57;;
5961;SDS011;3007;50.770;0.250;2023-11-21T05:16:53;2.90;;;2.70;;
5961;SDS011;3007;50.770;0.250;2023-11-21T05:19:21;4.40;;;2.93;;
5961;SDS011;3007;50.770;0.250;2023-11-21T05:21:48;2.70;;;2.50;;
5961;SDS011;3007;50.770;0.250;2023-11-21T05:24:15;3.33;;;2.43;;
5961;SDS011;3007;50.770;0.250;2023-11-21T05:26:41;2.17;;;1.97;;
5961;SDS011;3007;50.770;0.250;2023-11-21T05:29:08;2.30;;;2.10;;
5961;SDS011;3007;50.770;0.250;2023-11-21T05:31:36;2.20;;;2.00;;
5961;SDS011;3007;50.770;0.250;2023-11-21T05:34:04;2.00;;;1.90;;
5961;SDS011;3007;50.770;0.250;2023-11-21T05:36:31;1.87;;;1.77;;
5961;SDS011;3007;50.770;0.250;2023-11-21T05:38:58;1.80;;;1.70;;
5961;SDS011;3007;50.770;0.250;2023-11-21T05:41:25;1.80;;;1.70;;
5961;SDS011;3007;50.770;0.250;2023-11-21T05:43:52;2.00;;;1.80;;
5961;SDS011;3007;50.770;0.250;2023-11-21T05:46:19;1.93;;;1.60;;
5961;SDS011;3007;50.770;0.250;2023-11-21T05:48:47;2.60;;;1.33;;
5961;SDS011;3007;50.770;0.250;2023-11-21T05:51:15;2.03;;;1.43;;
5961;SDS011;3007;50.770;0.250;2023-11-21T05:53:42;1.97;;;1.73;;
5961;SDS011;3007;50.770;0.250;2023-11-21T05:56:09;1.60;;;1.50;;
5961;SDS011;3007;50.770;0.250;2023-11-21T05:58:37;1.40;;;1.30;;
5961;SDS011;3007;50.770;0.250;2023-11-21T06:01:05;1.40;;;1.30;;
5961;SDS011;3007;50.770;0.250;2023-11-21T06:03:32;2.17;;;1.57;;
5961;SDS011;3007;50.770;0.250;2023-11-21T06:06:00;1.60;;;1.40;;
5961;SDS011;3007;50.770;0.250;2023-11-21T06:08:28;4.10;;;1.67;;
5961;SDS011;3007;50.770;0.250;2023-11-21T06:10:55;1.87;;;1.40;;
5961;SDS011;3007;50.770;0.250;2023-11-21T06:13:22;2.13;;;1.50;;
5961;SDS011;3007;50.770;0.250;2023-11-21T06:15:49;1.93;;;1.70;;
5961;SDS011;3007;50.770;0.250;2023-11-21T06:18:17;1.83;;;1.67;;
5961;SDS011;3007;50.770;0.250;2023-11-21T06:20:44;2.03;;;1.27;;
5961;SDS011;3007;50.770;0.250;2023-11-21T06:23:11;1.70;;;1.60;;
5961;SDS011;3007;50.770;0.250;2023-11-21T06:25:40;1.73;;;1.50;;
5961;SDS011;3007;50.770;0.250;2023-11-21T06:28:07;1.97;;;1.50;;
5961;SDS011;3007;50.770;0.250;2023-11-21T06:30:35;2.60;;;1.23;;
5961;SDS011;3007;50.770;0.250;2023-11-21T06:33:03;2.43;;;1.30;;
5961;SDS011;3007;50.770;0.250;2023-11-21T06:35:31;2.63;;;1.40;;
5961;SDS011;3007;50.770;0.250;2023-11-21T06:38:00;1.60;;;1.50;;
5961;SDS011;3007;50.770;0.250;2023-11-21T06:40:28;2.00;;;1.33;;
5961;SDS011;3007;50.770;0.250;2023-11-21T06:42:56;1.33;;;1.23;;
5961;SDS011;3007;50.770;0.250;2023-11-21T06:45:24;2.20;;;1.40;;
5961;SDS011;3007;50.770;0.250;2023-11-21T06:47:51;1.07;;;0.97;;
5961;SDS011;3007;50.770;0.250;2023-11-21T06:50:18;1.87;;;1.50;;
5961;SDS011;3007;50.770;0.250;2023-11-21T06:52:46;1.20;;;1.10;;
5961;SDS011;3007;50.770;0.250;2023-11-21T06:55:13;1.87;;;1.30;;
5961;SDS011;3007;50.770;0.250;2023-11-21T06:57:41;1.03;;;0.80;;
5961;SDS011;3007;50.770;0.250;2023-11-21T07:00:10;2.07;;;1.10;;
5961;SDS011;3007;50.770;0.250;2023-11-21T07:02:38;1.37;;;0.90;;
5961;SDS011;3007;50.770;0.250;2023-11-21T07:05:05;1.63;;;1.30;;
5961;SDS011;3007;50.770;0.250;2023-11-21T07:07:32;0.80;;;0.80;;
5961;SDS011;3007;50.770;0.250;2023-11-21T07:10:02;1.23;;;0.90;;
5961;SDS011;3007;50.770;0.250;2023-11-21T07:12:30;0.80;;;0.80;;
5961;SDS011;3007;50.770;0.250;2023-11-21T07:14:57;0.80;;;0.80;;
5961;SDS011;3007;50.770;0.250;2023-11-21T07:17:26;1.27;;;0.90;;
5961;SDS011;3007;50.770;0.250;2023-11-21T07:19:53;0.80;;;0.80;;
5961;SDS011;3007;50.770;0.250;2023-11-21T07:22:20;1.03;;;0.93;;
5961;SDS011;3007;50.770;0.250;2023-11-21T07:24:48;1.60;;;1.10;;
5961;SDS011;3007;50.770;0.250;2023-11-21T07:27:16;2.00;;;1.20;;
5961;SDS011;3007;50.770;0.250;2023-11-21T07:29:43;1.87;;;1.20;;
5961;SDS011;3007;50.770;0.250;2023-11-21T07:32:10;1.27;;;1.10;;
5961;SDS011;3007;50.770;0.250;2023-11-21T07:34:39;1.97;;;1.37;;
5961;SDS011;3007;50.770;0.250;2023-11-21T07:37:06;1.40;;;1.30;;
5961;SDS011;3007;50.770;0.250;2023-11-21T07:39:33;2.93;;;1.67;;
5961;SDS011;3007;50.770;0.250;2023-11-21T07:42:00;1.60;;;1.20;;
5961;SDS011;3007;50.770;0.250;2023-11-21T07:44:29;1.97;;;1.73;;
5961;SDS011;3007;50.770;0.250;2023-11-21T07:46:56;1.40;;;1.30;;
5961;SDS011;3007;50.770;0.250;2023-11-21T07:49:23;1.70;;;1.60;;
5961;SDS011;3007;50.770;0.250;2023-11-21T07:51:51;2.03;;;1.63;;
5961;SDS011;3007;50.770;0.250;2023-11-21T07:54:18;2.70;;;1.67;;
5961;SDS011;3007;50.770;0.250;2023-11-21T07:56:46;2.40;;;1.90;;
5961;SDS011;3007;50.770;0.250;2023-11-21T07:59:13;2.70;;;1.67;;
5961;SDS011;3007;50.770;0.250;2023-11-21T08:01:40;3.00;;;1.97;;
5961;SDS011;3007;50.770;0.250;2023-11-21T08:04:08;2.93;;;1.70;;
5961;SDS011;3007;50.770;0.250;2023-11-21T08:06:35;3.23;;;1.70;;
5961;SDS011;3007;50.770;0.250;2023-11-21T08:09:03;2.60;;;1.50;;
5961;SDS011;3007;50.770;0.250;2023-11-21T08:11:30;2.08;;;1.88;;
5961;SDS011;3007;50.770;0.250;2023-11-21T08:13:58;2.40;;;1.77;;
5961;SDS011;3007;50.770;0.250;2023-11-21T08:16:25;1.63;;;1.50;;
5961;SDS011;3007;50.770;0.250;2023-11-21T08:18:52;4.17;;;1.67;;
5961;SDS011;3007;50.770;0.250;2023-11-21T08:21:19;2.23;;;1.50;;
5961;SDS011;3007;50.770;0.250;2023-11-21T08:23:48;1.60;;;1.50;;
5961;SDS011;3007;50.770;0.250;2023-11-21T08:26:20;2.17;;;1.60;;
5961;SDS011;3007;50.770;0.250;2023-11-21T08:28:47;3.37;;;2.00;;
5961;SDS011;3007;50.770;0.250;2023-11-21T08:31:13;4.53;;;2.20;;
5961;SDS011;3007;50.770;0.250;2023-11-21T08:33:41;3.73;;;2.10;;
5961;SDS011;3007;50.770;0.250;2023-11-21T08:36:08;4.07;;;2.13;;
5961;SDS011;3007;50.770;0.250;2023-11-21T08:38:36;3.03;;;1.80;;
5961;SDS011;3007;50.770;0.250;2023-11-21T08:41:04;2.50;;;1.60;;
5961;SDS011;3007;50.770;0.250;2023-11-21T08:43:35;1.93;;;1.67;;
5961;SDS011;3007;50.770;0.250;2023-11-21T08:46:04;2.27;;;1.60;;
5961;SDS011;3007;50.770;0.250;2023-11-21T08:48:33;2.77;;;1.40;;
5961;SDS011;3007;50.770;0.250;2023-11-21T08:51:01;3.93;;;1.20;;
5961;SDS011;3007;50.770;0.250;2023-11-21T08:53:28;1.40;;;1.30;;
5961;SDS011;3007;50.770;0.250;2023-11-21T08:55:56;4.47;;;1.80;;
5961;SDS011;3007;50.770;0.250;2023-11-21T08:58:22;5.17;;;2.13;;
5961;SDS011;3007;50.770;0.250;2023-11-21T09:00:50;3.30;;;1.67;;
5961;SDS011;3007;50.770;0.250;2023-11-21T09:03:17;3.80;;;1.30;;
5961;SDS011;3007;50.770;0.250;2023-11-21T09:05:44;4.70;;;1.20;;
5961;SDS011;3007;50.770;0.250;2023-11-21T09:08:11;2.07;;;1.23;;
5961;SDS011;3007;50.770;0.250;2023-11-21T09:10:38;1.67;;;1.20;;
5961;SDS011;3007;50.770;0.250;2023-11-21T09:13:05;2.03;;;1.17;;
5961;SDS011;3007;50.770;0.250;2023-11-21T09:15:34;2.27;;;1.30;;
5961;SDS011;3007;50.770;0.250;2023-11-21T09:18:02;1.83;;;1.20;;
5961;SDS011;3007;50.770;0.250;2023-11-21T09:20:30;2.80;;;1.33;;
5961;SDS011;3007;50.770;0.250;2023-11-21T09:22:57;2.87;;;1.17;;
5961;SDS011;3007;50.770;0.250;2023-11-21T09:25:23;1.27;;;1.17;;
5961;SDS011;3007;50.770;0.250;2023-11-21T09:27:50;3.07;;;1.27;;
5961;SDS011;3007;50.770;0.250;2023-11-21T09:30:17;1.97;;;1.40;;
5961;SDS011;3007;50.770;0.250;2023-11-21T09:32:45;1.80;;;1.20;;
5961;SDS011;3007;50.770;0.250;2023-11-21T09:35:13;2.47;;;1.10;;
5961;SDS011;3007;50.770;0.250;2023-11-21T09:37:41;1.70;;;1.40;;
5961;SDS011;3007;50.770;0.250;2023-11-21T09:40:10;1.37;;;0.90;;
5961;SDS011;3007;50.770;0.250;2023-11-21T09:42:40;4.13;;;1.30;;
5961;SDS011;3007;50.770;0.250;2023-11-21T09:45:12;3.10;;;1.40;;
5961;SDS011;3007;50.770;0.250;2023-11-21T09:47:43;3.03;;;1.53;;
5961;SDS011;3007;50.770;0.250;2023-11-21T09:50:10;2.53;;;1.43;;
5961;SDS011;3007;50.770;0.250;2023-11-21T09:52:43;2.07;;;1.20;;
5961;SDS011;3007;50.770;0.250;2023-11-21T09:55:15;3.63;;;1.57;;
5961;SDS011;3007;50.770;0.250;2023-11-21T09:57:46;3.43;;;1.73;;
5961;SDS011;3007;50.770;0.250;2023-11-21T10:00:15;2.30;;;1.17;;
5961;SDS011;3007;50.770;0.250;2023-11-21T10:02:45;3.93;;;1.50;;
5961;SDS011;3007;50.770;0.250;2023-11-21T10:05:15;1.93;;;1.40;;
5961;SDS011;3007;50.770;0.250;2023-11-21T10:07:44;4.07;;;1.30;;
5961;SDS011;3007;50.770;0.250;2023-11-21T10:10:12;1.60;;;1.20;;
5961;SDS011;3007;50.770;0.250;2023-11-21T10:12:41;2.30;;;1.50;;
5961;SDS011;3007;50.770;0.250;2023-11-21T10:15:09;2.93;;;1.23;;
5961;SDS011;3007;50.770;0.250;2023-11-21T10:17:41;2.93;;;1.50;;
5961;SDS011;3007;50.770;0.250;2023-11-21T10:20:10;1.27;;;1.17;;
5961;SDS011;3007;50.770;0.250;2023-11-21T10:22:38;1.87;;;1.40;;
5961;SDS011;3007;50.770;0.250;2023-11-21T10:25:08;2.33;;;1.43;;
5961;SDS011;3007;50.770;0.250;2023-11-21T10:27:36;3.63;;;1.83;;
5961;SDS011;3007;50.770;0.250;2023-11-21T10:30:04;1.67;;;1.33;;
5961;SDS011;3007;50.770;0.250;2023-11-21T10:32:32;1.53;;;1.30;;
5961;SDS011;3007;50.770;0.250;2023-11-21T10:34:59;2.30;;;1.70;;
5961;SDS011;3007;50.770;0.250;2023-11-21T10:37:31;3.03;;;1.77;;
5961;SDS011;3007;50.770;0.250;2023-11-21T10:39:58;1.97;;;1.70;;
5961;SDS011;3007;50.770;0.250;2023-11-21T10:42:26;2.10;;;1.60;;
5961;SDS011;3007;50.770;0.250;2023-11-21T10:44:54;2.73;;;1.50;;
5961;SDS011;3007;50.770;0.250;2023-11-21T10:47:21;3.67;;;1.67;;
5961;SDS011;3007;50.770;0.250;2023-11-21T10:49:48;3.20;;;1.53;;
5961;SDS011;3007;50.770;0.250;2023-11-21T10:52:15;2.20;;;1.50;;
5961;SDS011;3007;50.770;0.250;2023-11-21T10:54:45;3.10;;;1.47;;
5961;SDS011;3007;50.770;0.250;2023-11-21T10:57:13;2.83;;;1.67;;
5961;SDS011;3007;50.770;0.250;2023-11-21T10:59:46;2.40;;;1.90;;
5961;SDS011;3007;50.770;0.250;2023-11-21T11:02:16;3.63;;;1.70;;
5961;SDS011;3007;50.770;0.250;2023-11-21T11:04:50;2.57;;;1.67;;
5961;SDS011;3007;50.770;0.250;2023-11-21T11:07:19;3.73;;;1.60;;
5961;SDS011;3007;50.770;0.250;2023-11-21T11:09:52;2.57;;;1.60;;
5961;SDS011;3007;50.770;0.250;2023-11-21T11:12:19;2.53;;;1.60;;
5961;SDS011;3007;50.770;0.250;2023-11-21T11:14:48;2.27;;;1.47;;
5961;SDS011;3007;50.770;0.250;2023-11-21T11:17:15;2.57;;;1.47;;
5961;SDS011;3007;50.770;0.250;2023-11-21T11:19:44;4.10;;;1.60;;
5961;SDS011;3007;50.770;0.250;2023-11-21T11:22:14;1.53;;;1.43;;
5961;SDS011;3007;50.770;0.250;2023-11-21T11:24:57;1.60;;;1.50;;
5961;SDS011;3007;50.770;0.250;2023-11-21T11:27:49;1.60;;;1.50;;
5961;SDS011;3007;50.770;0.250;2023-11-21T11:30:28;3.23;;;1.47;;
5961;SDS011;3007;50.770;0.250;2023-11-21T11:33:08;1.93;;;1.70;;
5961;SDS011;3007;50.770;0.250;2023-11-21T11:35:42;2.00;;;1.60;;
5961;SDS011;3007;50.770;0.250;2023-11-21T11:38:18;2.53;;;1.30;;
5961;SDS011;3007;50.770;0.250;2023-11-21T11:40:47;5.07;;;1.07;;
5961;SDS011;3007;50.770;0.250;2023-11-21T11:43:14;1.27;;;1.00;;
5961;SDS011;3007;50.770;0.250;2023-11-21T11:45:53;1.33;;;1.13;;
5961;SDS011;3007;50.770;0.250;2023-11-21T11:48:24;1.37;;;1.10;;
5961;SDS011;3007;50.770;0.250;2023-11-21T11:51:00;1.20;;;1.00;;
5961;SDS011;3007;50.770;0.250;2023-11-21T11:53:32;2.20;;;1.30;;
5961;SDS011;3007;50.770;0.250;2023-11-21T11:58:48;2.47;;;1.10;;
5961;SDS011;3007;50.770;0.250;2023-11-21T12:01:18;2.90;;;1.40;;
5961;SDS011;3007;50.770;0.250;2023-11-21T12:03:45;1.33;;;1.17;;
5961;SDS011;3007;50.770;0.250;2023-11-21T12:06:56;1.30;;;1.20;;
5961;SDS011;3007;50.770;0.250;2023-11-21T12:09:25;3.10;;;1.20;;
5961;SDS011;3007;50.770;0.250;2023-11-21T12:11:52;1.33;;;1.20;;
5961;SDS011;3007;50.770;0.250;2023-11-21T12:14:21;2.47;;;1.10;;
5961;SDS011;3007;50.770;0.250;2023-11-21T12:16:50;1.60;;;1.10;;
5961;SDS011;3007;50.770;0.250;2023-11-21T12:19:18;1.70;;;1.10;;
5961;SDS011;3007;50.770;0.250;2023-11-21T12:21:46;1.63;;;1.00;;
5961;SDS011;3007;50.770;0.250;2023-11-21T12:24:14;1.87;;;1.00;;
5961;SDS011;3007;50.770;0.250;2023-11-21T12:26:41;2.50;;;1.10;;
5961;SDS011;3007;50.770;0.250;2023-11-21T12:29:09;2.17;;;1.37;;
5961;SDS011;3007;50.770;0.250;2023-11-21T12:31:35;1.60;;;1.20;;
5961;SDS011;3007;50.770;0.250;2023-11-21T12:34:04;2.80;;;1.40;;
5961;SDS011;3007;50.770;0.250;2023-11-21T12:36:31;2.00;;;1.53;;
5961;SDS011;3007;50.770;0.250;2023-11-21T12:38:59;2.43;;;1.37;;
5961;SDS011;3007;50.770;0.250;2023-11-21T12:41:27;1.33;;;1.20;;
5961;SDS011;3007;50.770;0.250;2023-11-21T12:43:55;1.23;;;1.13;;
5961;SDS011;3007;50.770;0.250;2023-11-21T12:46:22;1.30;;;1.20;;
5961;SDS011;3007;50.770;0.250;2023-11-21T12:48:51;1.60;;;1.20;;
5961;SDS011;3007;50.770;0.250;2023-11-21T12:51:19;1.77;;;1.40;;
5961;SDS011;3007;50.770;0.250;2023-11-21T12:53:47;1.33;;;1.20;;
5961;SDS011;3007;50.770;0.250;2023-11-21T12:56:15;3.23;;;1.40;;
5961;SDS011;3007;50.770;0.250;2023-11-21T12:58:44;1.73;;;1.63;;
5961;SDS011;3007;50.770;0.250;2023-11-21T13:01:12;1.80;;;1.60;;
5961;SDS011;3007;50.770;0.250;2023-11-21T13:03:44;2.37;;;1.50;;
5961;SDS011;3007;50.770;0.250;2023-11-21T13:06:13;2.70;;;2.13;;
5961;SDS011;3007;50.770;0.250;2023-11-21T13:08:43;2.87;;;2.00;;
5961;SDS011;3007;50.770;0.250;2023-11-21T13:11:11;1.80;;;1.60;;
5961;SDS011;3007;50.770;0.250;2023-11-21T13:13:40;1.77;;;1.40;;
5961;SDS011;3007;50.770;0.250;2023-11-21T13:16:08;2.87;;;1.60;;
5961;SDS011;3007;50.770;0.250;2023-11-21T13:18:36;1.93;;;1.80;;
5961;SDS011;3007;50.770;0.250;2023-11-21T13:21:03;1.83;;;1.67;;
5961;SDS011;3007;50.770;0.250;2023-11-21T13:23:35;2.30;;;2.10;;
5961;SDS011;3007;50.770;0.250;2023-11-21T13:26:04;2.07;;;1.70;;
5961;SDS011;3007;50.770;0.250;2023-11-21T13:28:31;2.47;;;1.90;;
5961;SDS011;3007;50.770;0.250;2023-11-21T13:30:59;1.93;;;1.70;;
5961;SDS011;3007;50.770;0.250;2023-11-21T13:33:29;1.70;;;1.60;;
5961;SDS011;3007;50.770;0.250;2023-11-21T13:35:58;3.70;;;2.00;;
5961;SDS011;3007;50.770;0.250;2023-11-21T13:38:26;2.10;;;1.87;;
5961;SDS011;3007;50.770;0.250;2023-11-21T13:40:58;2.43;;;1.60;;
5961;SDS011;3007;50.770;0.250;2023-11-21T13:43:26;2.60;;;2.03;;
5961;SDS011;3007;50.770;0.250;2023-11-21T13:45:54;1.67;;;1.50;;
5961;SDS011;3007;50.770;0.250;2023-11-21T13:48:25;3.13;;;1.70;;
5961;SDS011;3007;50.770;0.250;2023-11-21T13:50:59;2.43;;;1.60;;
5961;SDS011;3007;50.770;0.250;2023-11-21T13:53:35;2.93;;;1.50;;
5961;SDS011;3007;50.770;0.250;2023-11-21T13:56:04;4.37;;;1.87;;
5961;SDS011;3007;50.770;0.250;2023-11-21T13:58:32;2.17;;;1.60;;
5961;SDS011;3007;50.770;0.250;2023-11-21T14:01:09;1.43;;;1.20;;
5961;SDS011;3007;50.770;0.250;2023-11-21T14:03:49;1.90;;;1.53;;
5961;SDS011;3007;50.770;0.250;2023-11-21T14:06:22;1.67;;;1.57;;
5961;SDS011;3007;50.770;0.250;2023-11-21T14:08:57;2.00;;;1.40;;
5961;SDS011;3007;50.770;0.250;2023-11-21T14:11:27;1.50;;;1.40;;
5961;SDS011;3007;50.770;0.250;2023-11-21T14:13:55;1.60;;;1.50;;
5961;SDS011;3007;50.770;0.250;2023-11-21T14:16:24;1.93;;;1.70;;
5961;SDS011;3007;50.770;0.250;2023-11-21T14:18:51;1.70;;;1.60;;
5961;SDS011;3007;50.770;0.250;2023-11-21T14:21:23;1.57;;;1.47;;
5961;SDS011;3007;50.770;0.250;2023-11-21T14:23:51;3.53;;;1.50;;
5961;SDS011;3007;50.770;0.250;2023-11-21T14:26:19;2.40;;;1.43;;
5961;SDS011;3007;50.770;0.250;2023-11-21T14:28:46;1.70;;;1.50;;
5961;SDS011;3007;50.770;0.250;2023-11-21T14:31:15;2.47;;;1.30;;
5961;SDS011;3007;50.770;0.250;2023-11-21T14:33:42;1.40;;;1.30;;
5961;SDS011;3007;50.770;0.250;2023-11-21T14:36:10;1.50;;;1.20;;
5961;SDS011;3007;50.770;0.250;2023-11-21T14:38:37;1.93;;;1.33;;
5961;SDS011;3007;50.770;0.250;2023-11-21T14:41:04;1.20;;;1.10;;
5961;SDS011;3007;50.770;0.250;2023-11-21T14:43:33;1.20;;;1.10;;
5961;SDS011;3007;50.770;0.250;2023-11-21T14:46:00;4.70;;;1.10;;
5961;SDS011;3007;50.770;0.250;2023-11-21T14:48:29;1.30;;;1.20;;
5961;SDS011;3007;50.770;0.250;2023-11-21T14:51:07;1.93;;;1.17;;
5961;SDS011;3007;50.770;0.250;2023-11-21T14:53:55;2.53;;;1.20;;
5961;SDS011;3007;50.770;0.250;2023-11-21T14:56:25;1.90;;;0.93;;
5961;SDS011;3007;50.770;0.250;2023-11-21T14:58:56;1.10;;;1.00;;
5961;SDS011;3007;50.770;0.250;2023-11-21T15:01:23;2.40;;;1.40;;
5961;SDS011;3007;50.770;0.250;2023-11-21T15:04:09;1.33;;;1.07;;
5961;SDS011;3007;50.770;0.250;2023-11-21T15:06:48;2.57;;;1.40;;
5961;SDS011;3007;50.770;0.250;2023-11-21T15:09:14;1.90;;;1.27;;
5961;SDS011;3007;50.770;0.250;2023-11-21T15:12:01;1.87;;;1.17;;
5961;SDS011;3007;50.770;0.250;2023-11-21T15:14:38;2.00;;;1.10;;
5961;SDS011;3007;50.770;0.250;2023-11-21T15:17:05;1.33;;;1.23;;
5961;SDS011;3007;50.770;0.250;2023-11-21T15:19:34;1.20;;;1.10;;
5961;SDS011;3007;50.770;0.250;2023-11-21T15:22:01;1.87;;;1.30;;
5961;SDS011;3007;50.770;0.250;2023-11-21T15:24:28;2.07;;;1.13;;
5961;SDS011;3007;50.770;0.250;2023-11-21T15:26:55;2.50;;;1.20;;